Terminal Aerodrome Forecast
Issued by NWS Bismarck, ND

Home | Current Version | Previous Version | Graphics & Text | Print | Product List | Glossary On
Versions: 1 2 3 4 5 6 7 8 9 10 11 12 13 14 15 16 17 18 19 20 21
024
FTUS43 KBIS 232331
TAFBIS
TAF
KBIS 232331Z 2400/2424 00000KT P6SM -RA SCT040 OVC080
     FM240200 35005KT P6SM VCSH OVC040
     FM240500 34005KT P6SM BKN110
     FM240800 35005KT 5SM BR SCT110
     FM241100 01006KT 2SM BR BKN015
     FM241500 02005KT 3SM BR BKN008
     FM241700 02006KT P6SM SCT035=

USA.gov is the U.S. government's official web portal to all federal, state and local government web resources and services.